Time;durP1;ratioP1;P1;durP2;ratioP2;P2;SDS_P1;SDS_P2;PMS_P1;PMS_P2;Temp;Humidity;BMP_temperature;BMP_pressure;BME280_temperature;BME280_humidity;BME280_pressure;Samples;Min_cycle;Max_cycle;Signal;HPM_P1;HPM_P2
2024/01/08 00:01:36;;;;;;;7.10;5.13;;;-1.10;99.90;;;;;;4997061;28;20038;-78
2024/01/08 00:04:02;;;;;;;10.23;5.43;;;-1.10;99.90;;;;;;4987856;28;20074;-77
2024/01/08 00:06:27;;;;;;;6.95;5.03;;;-1.10;99.90;;;;;;4993223;28;20042;-77
2024/01/08 00:08:53;;;;;;;7.63;5.25;;;-1.10;97.70;;;;;;5023236;28;20046;-78
2024/01/08 00:11:19;;;;;;;7.63;5.10;;;-1.10;99.90;;;;;;4993374;28;20315;-78
2024/01/08 00:13:44;;;;;;;8.52;5.57;;;-1.20;82.40;;;;;;4986336;28;20125;-78
2024/01/08 00:16:10;;;;;;;9.93;6.05;;;-1.20;30.70;;;;;;4989217;28;20995;-78
2024/01/08 00:18:36;;;;;;;8.90;5.75;;;-1.40;1.00;;;;;;4977824;28;20042;-77
2024/01/08 00:21:02;;;;;;;9.95;6.00;;;-1.40;1.00;;;;;;5005211;28;20038;-77
2024/01/08 00:23:30;;;;;;;8.98;6.20;;;-1.60;1.00;;;;;;5029149;28;20105;-77
2024/01/08 00:25:56;;;;;;;8.65;5.70;;;-1.60;99.90;;;;;;4996774;28;20096;-78
2024/01/08 00:28:22;;;;;;;8.13;5.93;;;-1.70;99.90;;;;;;4994489;28;20445;-77
2024/01/08 00:30:48;;;;;;;10.00;5.88;;;-1.80;99.90;;;;;;4990282;28;20432;-77
2024/01/08 00:33:13;;;;;;;10.30;5.55;;;-1.90;99.90;;;;;;4988522;28;20086;-77
2024/01/08 00:35:39;;;;;;;9.10;5.68;;;-1.90;99.90;;;;;;4976132;28;20104;-77
2024/01/08 00:38:05;;;;;;;9.18;5.53;;;-1.90;99.90;;;;;;5010660;28;20046;-77
2024/01/08 00:40:31;;;;;;;9.45;5.60;;;-1.90;99.90;;;;;;4994932;28;20060;-77
2024/01/08 00:42:57;;;;;;;8.57;5.18;;;-2.00;99.90;;;;;;4999763;28;20057;-77
2024/01/08 00:45:23;;;;;;;9.15;5.65;;;-2.00;99.90;;;;;;4986761;28;20125;-77
2024/01/08 00:47:49;;;;;;;8.20;5.13;;;-2.10;99.90;;;;;;5008419;28;20544;-77
2024/01/08 00:50:16;;;;;;;10.00;6.18;;;-2.10;99.90;;;;;;5013431;28;20033;-77
2024/01/08 00:52:41;;;;;;;9.43;5.28;;;-2.10;99.90;;;;;;4988483;28;20579;-77
2024/01/08 00:55:11;;;;;;;8.55;5.55;;;-2.10;99.90;;;;;;4983362;28;20066;-77
2024/01/08 00:57:38;;;;;;;8.48;5.60;;;-2.20;99.90;;;;;;4996541;28;20413;-77
2024/01/08 01:00:05;;;;;;;8.50;5.18;;;-2.20;99.90;;;;;;4994803;28;20452;-77
2024/01/08 01:02:31;;;;;;;11.93;6.05;;;-2.20;99.90;;;;;;4996418;28;20042;-77
2024/01/08 01:04:57;;;;;;;9.43;6.20;;;-2.20;99.90;;;;;;4982921;28;20069;-77
2024/01/08 01:07:23;;;;;;;7.65;5.90;;;-2.20;99.90;;;;;;5029236;28;20046;-77
2024/01/08 01:09:49;;;;;;;7.97;5.55;;;-2.20;99.90;;;;;;4995664;28;20042;-77
2024/01/08 01:12:15;;;;;;;9.18;5.88;;;-2.30;99.90;;;;;;5005579;28;20046;-77
2024/01/08 01:14:41;;;;;;;9.23;6.00;;;-2.30;99.90;;;;;;4997769;28;20045;-77
2024/01/08 01:17:07;;;;;;;10.32;6.82;;;-2.30;99.90;;;;;;4994965;28;20041;-76
2024/01/08 01:19:33;;;;;;;10.38;6.78;;;-2.20;99.90;;;;;;4994757;28;20076;-77
2024/01/08 01:21:58;;;;;;;9.43;6.35;;;-2.20;99.90;;;;;;4983761;28;20479;-77
2024/01/08 01:24:24;;;;;;;9.55;6.55;;;-2.20;99.90;;;;;;4989998;28;20478;-77
2024/01/08 01:26:50;;;;;;;9.75;6.68;;;-2.10;99.90;;;;;;4984096;28;20587;-77
2024/01/08 01:29:16;;;;;;;9.68;6.90;;;-2.00;99.90;;;;;;4994700;28;20537;-77
2024/01/08 01:31:42;;;;;;;9.98;6.78;;;-2.00;99.90;;;;;;4990699;28;20046;-77
2024/01/08 01:34:12;;;;;;;11.55;6.47;;;-1.90;99.90;;;;;;4993392;28;20489;-77
2024/01/08 01:36:39;;;;;;;9.13;6.97;;;-1.80;99.90;;;;;;5019888;28;20060;-77
2024/01/08 01:39:05;;;;;;;12.30;7.57;;;-1.80;1.00;;;;;;5017493;28;20046;-77
2024/01/08 01:41:34;;;;;;;11.23;7.10;;;-1.80;1.00;;;;;;5004692;28;20041;-77
2024/01/08 01:44:00;;;;;;;10.40;6.65;;;-1.80;1.00;;;;;;5000610;28;20042;-77
2024/01/08 01:46:35;;;;;;;10.23;6.95;;;-1.70;1.00;;;;;;4999645;28;20116;-77
2024/01/08 01:49:03;;;;;;;10.77;7.38;;;-1.70;1.00;;;;;;4990866;28;20540;-77
2024/01/08 01:51:28;;;;;;;10.27;7.53;;;-1.60;1.00;;;;;;4996791;28;20341;-77
2024/01/08 01:53:57;;;;;;;10.30;7.07;;;-1.60;1.00;;;;;;4990368;28;20477;-77
2024/01/08 01:56:24;;;;;;;12.35;7.80;;;-1.60;1.00;;;;;;4994940;28;20037;-77
2024/01/08 01:58:50;;;;;;;10.43;7.15;;;-1.60;1.00;;;;;;4996798;28;20108;-77
2024/01/08 02:01:17;;;;;;;11.65;7.43;;;-1.60;1.00;;;;;;4993038;28;20046;-77
2024/01/08 02:03:43;;;;;;;8.88;6.90;;;-1.60;2.40;;;;;;5027617;28;20093;-77
2024/01/08 02:06:12;;;;;;;10.85;7.75;;;-1.50;9.90;;;;;;4995604;28;20622;-77
2024/01/08 02:08:38;;;;;;;10.52;7.10;;;-1.50;18.20;;;;;;4976803;28;20034;-76
2024/01/08 02:11:04;;;;;;;9.10;7.35;;;-1.50;30.30;;;;;;4981276;28;20049;-76
2024/01/08 02:13:30;;;;;;;9.90;7.20;;;-1.50;65.20;;;;;;4983028;28;20034;-77
2024/01/08 02:15:56;;;;;;;9.57;7.45;;;-1.50;92.00;;;;;;4993039;28;20081;-77
2024/01/08 02:18:22;;;;;;;13.63;7.80;;;-1.40;99.90;;;;;;4981804;28;20230;-77
2024/01/08 02:20:48;;;;;;;12.98;7.78;;;-1.40;99.90;;;;;;4995683;28;20108;-77
2024/01/08 02:23:14;;;;;;;14.27;8.77;;;-1.40;99.90;;;;;;4983193;28;20037;-77
2024/01/08 02:25:40;;;;;;;11.32;7.80;;;-1.40;99.90;;;;;;4991853;28;20042;-77
2024/01/08 02:28:06;;;;;;;11.82;8.15;;;-1.40;99.90;;;;;;4992844;28;20041;-77
2024/01/08 02:30:31;;;;;;;10.88;7.60;;;-1.40;99.90;;;;;;4991585;28;20084;-77
2024/01/08 02:32:57;;;;;;;12.82;8.30;;;-1.30;99.90;;;;;;5006202;28;20404;-77
2024/01/08 02:35:23;;;;;;;12.77;8.65;;;-1.30;99.90;;;;;;4979558;28;20125;-77
2024/01/08 02:37:49;;;;;;;12.75;8.07;;;-1.30;99.90;;;;;;4993128;28;20588;-77
2024/01/08 02:40:15;;;;;;;12.38;8.10;;;-1.30;99.90;;;;;;4986093;28;20057;-77
2024/01/08 02:42:41;;;;;;;12.05;8.27;;;-1.20;99.90;;;;;;5005667;28;20046;-77
2024/01/08 02:45:10;;;;;;;13.25;8.38;;;-1.20;99.90;;;;;;5025986;28;20755;-77
2024/01/08 02:47:37;;;;;;;11.63;8.20;;;-1.20;99.90;;;;;;4981745;28;20440;-77
2024/01/08 02:50:07;;;;;;;11.57;8.25;;;-1.10;99.90;;;;;;5002711;28;20079;-77
2024/01/08 02:52:34;;;;;;;11.70;8.18;;;-1.10;99.90;;;;;;4998955;28;20088;-77
2024/01/08 02:55:00;;;;;;;10.05;8.07;;;-1.10;99.90;;;;;;4995573;28;20050;-77
2024/01/08 02:57:26;;;;;;;12.50;8.55;;;-1.10;99.90;;;;;;4982683;28;20049;-77
2024/01/08 02:59:52;;;;;;;11.52;8.57;;;-1.10;99.90;;;;;;4985968;28;20135;-77
2024/01/08 03:02:18;;;;;;;10.82;8.07;;;-1.10;99.90;;;;;;4995288;28;20465;-77
2024/01/08 03:04:44;;;;;;;10.82;8.13;;;-1.00;99.90;;;;;;4995680;28;20061;-77
2024/01/08 03:07:11;;;;;;;11.23;7.97;;;-1.00;99.90;;;;;;4995129;28;20196;-77
2024/01/08 03:09:36;;;;;;;11.98;8.25;;;-1.00;99.90;;;;;;4997403;28;20035;-77
2024/01/08 03:12:03;;;;;;;13.82;8.35;;;-1.00;99.90;;;;;;4995751;28;20049;-77
2024/01/08 03:14:29;;;;;;;10.95;7.75;;;-1.00;99.90;;;;;;4981999;28;20077;-77
2024/01/08 03:16:54;;;;;;;10.13;7.80;;;-1.00;99.90;;;;;;4980732;28;20045;-77
2024/01/08 03:19:20;;;;;;;10.27;8.00;;;-1.00;99.90;;;;;;4994554;28;20030;-77
2024/01/08 03:21:46;;;;;;;11.25;8.43;;;-1.00;99.90;;;;;;4993722;28;20543;-77
2024/01/08 03:24:12;;;;;;;11.30;7.50;;;-1.00;99.90;;;;;;4995381;28;20042;-77
2024/01/08 03:26:38;;;;;;;9.07;7.47;;;-1.00;99.90;;;;;;4996378;28;20033;-76
2024/01/08 03:29:03;;;;;;;11.93;7.80;;;-1.00;99.90;;;;;;4983274;28;20196;-77
2024/01/08 03:31:29;;;;;;;16.13;8.20;;;-1.00;99.90;;;;;;4983174;28;20115;-77
2024/01/08 03:33:55;;;;;;;13.07;8.00;;;-1.10;99.90;;;;;;5023061;28;20072;-77
2024/01/08 03:36:21;;;;;;;10.48;7.38;;;-1.00;99.90;;;;;;5000406;28;20068;-77
2024/01/08 03:38:46;;;;;;;11.00;7.68;;;-1.10;99.90;;;;;;4980070;28;20555;-77
2024/01/08 03:41:13;;;;;;;11.75;7.35;;;-1.00;99.90;;;;;;4981597;28;20293;-77
2024/01/08 03:43:38;;;;;;;11.60;7.43;;;-1.00;99.90;;;;;;5021055;28;20041;-77
2024/01/08 03:46:04;;;;;;;11.50;7.65;;;-1.00;99.90;;;;;;4995332;28;20042;-77
2024/01/08 03:48:30;;;;;;;10.50;7.18;;;-1.00;99.90;;;;;;4999128;28;20041;-77
2024/01/08 03:50:56;;;;;;;10.65;7.32;;;-1.00;99.90;;;;;;5000173;28;20042;-77
2024/01/08 03:53:21;;;;;;;10.82;7.03;;;-0.90;99.90;;;;;;5000116;28;20476;-77
2024/01/08 03:55:47;;;;;;;11.50;7.57;;;-1.00;99.90;;;;;;4995517;28;20052;-77
2024/01/08 03:58:13;;;;;;;10.52;6.88;;;-1.00;99.90;;;;;;4979820;28;20216;-77
2024/01/08 04:00:39;;;;;;;12.13;7.03;;;-1.00;99.90;;;;;;4991860;28;20138;-77
2024/01/08 04:03:04;;;;;;;10.32;6.97;;;-1.00;99.90;;;;;;4984886;28;20459;-77
2024/01/08 04:05:30;;;;;;;11.52;7.22;;;-1.00;99.90;;;;;;4995921;28;20149;-77
2024/01/08 04:07:56;;;;;;;9.25;6.80;;;-1.00;99.90;;;;;;4993017;28;20078;-77
2024/01/08 04:10:23;;;;;;;9.93;6.82;;;-1.00;99.90;;;;;;4982160;28;20099;-77
2024/01/08 04:12:48;;;;;;;10.68;6.55;;;-1.00;99.90;;;;;;5013246;28;20042;-77
2024/01/08 04:15:14;;;;;;;10.20;6.70;;;-1.00;99.90;;;;;;5013118;28;20348;-77
2024/01/08 04:17:40;;;;;;;9.07;6.72;;;-1.00;99.90;;;;;;4995201;28;20461;-77
2024/01/08 04:20:06;;;;;;;10.30;6.43;;;-1.00;99.90;;;;;;4980437;28;20382;-77
2024/01/08 04:22:32;;;;;;;8.30;5.80;;;-1.00;99.90;;;;;;4998657;28;20038;-77
2024/01/08 04:24:58;;;;;;;8.45;5.90;;;-1.00;99.90;;;;;;4981165;28;20053;-77
2024/01/08 04:27:23;;;;;;;9.85;5.88;;;-1.00;99.90;;;;;;5023716;28;20061;-77
2024/01/08 04:29:49;;;;;;;8.85;5.70;;;-1.00;99.90;;;;;;5000921;28;20607;-77
2024/01/08 04:32:15;;;;;;;8.05;5.75;;;-1.00;99.90;;;;;;4983932;28;20049;-77
2024/01/08 04:34:41;;;;;;;7.88;4.97;;;-1.10;98.80;;;;;;4976866;28;20112;-77
2024/01/08 04:37:06;;;;;;;7.38;5.03;;;-1.10;63.40;;;;;;4993304;28;20233;-77
2024/01/08 04:39:32;;;;;;;9.13;5.50;;;-1.10;6.00;;;;;;4985220;28;20576;-77
2024/01/08 04:42:00;;;;;;;8.80;5.43;;;-1.10;1.00;;;;;;4993328;28;20050;-77
2024/01/08 04:44:26;;;;;;;7.90;5.60;;;-1.20;1.00;;;;;;4978649;28;20045;-77
2024/01/08 04:46:52;;;;;;;8.02;4.85;;;-1.20;1.00;;;;;;5000459;28;20045;-77
2024/01/08 04:49:18;;;;;;;7.60;4.97;;;-1.30;99.90;;;;;;4983787;28;20041;-77
2024/01/08 04:51:43;;;;;;;7.82;5.07;;;-1.40;99.90;;;;;;5031062;28;20508;-77
2024/01/08 04:54:09;;;;;;;7.72;4.93;;;-1.50;99.90;;;;;;5000828;28;20078;-77
2024/01/08 04:56:38;;;;;;;7.13;5.03;;;-1.50;99.90;;;;;;4995991;28;20034;-76
2024/01/08 04:59:03;;;;;;;8.55;5.10;;;-1.60;99.90;;;;;;4999917;28;20084;-77
2024/01/08 05:01:36;;;;;;;6.70;5.10;;;-1.60;99.90;;;;;;4994193;28;20145;-77
2024/01/08 05:04:02;;;;;;;7.55;4.93;;;-1.60;99.90;;;;;;4984560;28;20042;-77
2024/01/08 05:06:28;;;;;;;7.53;5.25;;;-1.60;99.90;;;;;;5026277;28;20052;-77
2024/01/08 05:08:54;;;;;;;6.53;4.57;;;-1.60;99.90;;;;;;4983757;28;20046;-77
2024/01/08 05:11:19;;;;;;;7.60;5.38;;;-1.70;99.90;;;;;;5013164;28;20054;-77
2024/01/08 05:13:45;;;;;;;7.68;5.38;;;-1.80;99.90;;;;;;4981911;28;20053;-76
2024/01/08 05:16:11;;;;;;;8.27;4.97;;;-1.80;99.90;;;;;;4999136;28;20042;-77
2024/01/08 05:18:36;;;;;;;6.85;4.88;;;-1.90;69.40;;;;;;4984776;28;20037;-77
2024/01/08 05:21:07;;;;;;;7.75;4.85;;;-2.00;20.00;;;;;;4989080;28;20142;-77
2024/01/08 05:23:33;;;;;;;5.95;4.88;;;-2.00;1.00;;;;;;4999895;28;20045;-77
2024/01/08 05:26:00;;;;;;;7.40;5.20;;;-2.00;1.00;;;;;;5028876;28;20052;-77
2024/01/08 05:28:29;;;;;;;7.60;5.28;;;-2.00;1.00;;;;;;4982828;28;20512;-76
2024/01/08 05:30:55;;;;;;;8.07;5.03;;;-2.00;1.00;;;;;;4992117;28;20052;-77
2024/01/08 05:33:22;;;;;;;7.13;4.90;;;-2.00;1.00;;;;;;4983218;28;20088;-77
2024/01/08 05:35:48;;;;;;;7.10;5.20;;;-1.90;14.90;;;;;;4952974;28;1199487;-77
2024/01/08 05:38:14;;;;;;;7.15;4.72;;;-1.90;19.00;;;;;;4999185;28;20046;-77
2024/01/08 05:40:40;;;;;;;7.78;5.07;;;-1.90;3.60;;;;;;5027535;28;20050;-77
2024/01/08 05:43:06;;;;;;;7.80;4.93;;;-2.00;1.00;;;;;;4993647;28;20120;-77
2024/01/08 05:45:31;;;;;;;7.47;5.32;;;-2.00;1.00;;;;;;5028605;28;20355;-77
2024/01/08 05:47:57;;;;;;;7.55;4.95;;;-2.10;1.00;;;;;;4995445;28;20049;-77
2024/01/08 05:50:27;;;;;;;6.85;4.70;;;-2.10;1.00;;;;;;5029197;28;20041;-77
2024/01/08 05:52:54;;;;;;;9.95;5.68;;;-2.10;1.00;;;;;;4991767;28;20103;-77
2024/01/08 05:55:20;;;;;;;10.00;6.35;;;-2.20;1.00;;;;;;4999663;28;20565;-77
2024/01/08 05:57:46;;;;;;;8.40;5.80;;;-2.20;1.00;;;;;;4983101;28;20202;-77
2024/01/08 06:00:14;;;;;;;7.47;5.28;;;-2.20;1.00;;;;;;4999958;28;20046;-77
2024/01/08 06:02:39;;;;;;;8.13;5.55;;;-2.10;1.00;;;;;;4996723;28;20173;-77
2024/01/08 06:05:06;;;;;;;7.40;5.40;;;-2.10;1.00;;;;;;4995464;28;20050;-77
2024/01/08 06:07:32;;;;;;;9.60;5.70;;;-2.10;6.90;;;;;;5001746;28;20116;-77
2024/01/08 06:09:57;;;;;;;7.35;5.10;;;-2.00;51.90;;;;;;4984664;28;20121;-77
2024/01/08 06:12:23;;;;;;;12.07;6.18;;;-2.00;84.30;;;;;;4996413;28;20460;-77
2024/01/08 06:14:49;;;;;;;9.65;5.95;;;-2.00;99.90;;;;;;4984864;28;20159;-77
2024/01/08 06:17:14;;;;;;;7.18;5.72;;;-1.90;99.90;;;;;;5018577;28;20469;-77
2024/01/08 06:19:41;;;;;;;9.45;6.18;;;-1.90;99.90;;;;;;4998532;28;20038;-77
2024/01/08 06:22:07;;;;;;;10.70;6.28;;;-1.80;99.90;;;;;;4994606;28;20046;-77
2024/01/08 06:24:32;;;;;;;11.68;6.68;;;-1.80;99.90;;;;;;5029537;28;20060;-77
2024/01/08 06:26:59;;;;;;;9.75;6.07;;;-1.70;99.90;;;;;;4984502;28;20084;-77
2024/01/08 06:29:25;;;;;;;9.82;6.60;;;-1.70;99.90;;;;;;5026038;28;20137;-77
2024/01/08 06:31:51;;;;;;;8.98;5.75;;;-1.70;99.90;;;;;;4986439;28;20284;-77
2024/01/08 06:34:17;;;;;;;10.90;6.68;;;-1.60;99.90;;;;;;4975954;28;20069;-77
2024/01/08 06:36:43;;;;;;;8.95;6.28;;;-1.60;99.90;;;;;;5025931;28;20437;-78
2024/01/08 06:39:09;;;;;;;13.20;6.68;;;-1.60;99.90;;;;;;4981429;28;20183;-77
2024/01/08 06:41:38;;;;;;;9.27;6.25;;;-1.50;99.90;;;;;;5025973;28;20039;-78
2024/01/08 06:44:05;;;;;;;9.70;6.13;;;-1.50;99.90;;;;;;4980868;28;20042;-78
2024/01/08 06:46:31;;;;;;;10.77;6.40;;;-1.50;1.00;;;;;;4982341;28;20116;-78
2024/01/08 06:48:57;;;;;;;10.07;6.43;;;-1.50;1.00;;;;;;4998420;28;20050;-78
2024/01/08 06:51:23;;;;;;;10.45;6.63;;;-1.40;1.00;;;;;;4980219;28;20057;-78
2024/01/08 06:53:49;;;;;;;9.60;5.85;;;-1.40;1.00;;;;;;4992411;28;20056;-77
2024/01/08 06:56:15;;;;;;;8.85;5.60;;;-1.40;1.00;;;;;;5024649;28;20046;-78
2024/01/08 06:58:40;;;;;;;9.00;6.03;;;-1.40;1.00;;;;;;5034596;28;20414;-77
2024/01/08 07:01:06;;;;;;;9.48;6.03;;;-1.40;1.00;;;;;;4996878;28;20058;-78
2024/01/08 07:03:34;;;;;;;11.55;5.53;;;-1.40;1.00;;;;;;4989851;28;20553;-77
2024/01/08 07:06:02;;;;;;;11.13;6.25;;;-1.30;1.00;;;;;;4991114;28;20373;-78
2024/01/08 07:08:27;;;;;;;8.25;5.68;;;-1.30;30.00;;;;;;4982367;28;20038;-78
2024/01/08 07:10:53;;;;;;;10.30;5.63;;;-1.30;40.00;;;;;;4981263;28;20057;-78
2024/01/08 07:13:19;;;;;;;10.30;6.20;;;-1.30;21.90;;;;;;5008523;28;20119;-78
2024/01/08 07:15:48;;;;;;;7.95;5.22;;;-1.20;92.30;;;;;;5017445;28;20060;-78
2024/01/08 07:18:16;;;;;;;9.68;5.57;;;-1.20;99.90;;;;;;4995937;28;20053;-78
2024/01/08 07:20:42;;;;;;;12.68;5.30;;;-1.20;99.90;;;;;;4982088;28;20049;-77
2024/01/08 07:23:09;;;;;;;10.75;6.25;;;-1.20;99.90;;;;;;4998432;28;20041;-77
2024/01/08 07:25:37;;;;;;;9.93;5.43;;;-1.10;99.90;;;;;;4994297;28;20037;-77
2024/01/08 07:28:11;;;;;;;10.10;5.57;;;-1.10;99.90;;;;;;4997642;28;20365;-77
2024/01/08 07:30:37;;;;;;;10.15;5.95;;;-1.10;99.90;;;;;;4980687;28;20039;-76
2024/01/08 07:33:03;;;;;;;8.88;5.43;;;-1.10;99.90;;;;;;4996759;28;20046;-77
2024/01/08 07:35:29;;;;;;;7.97;5.63;;;-1.00;99.90;;;;;;4987037;28;20508;-77
2024/01/08 07:37:55;;;;;;;8.32;5.30;;;-1.00;99.90;;;;;;4980859;28;20120;-77
2024/01/08 07:40:27;;;;;;;9.02;5.47;;;-1.00;99.90;;;;;;4990880;28;20046;-78
2024/01/08 07:42:54;;;;;;;9.80;5.75;;;-1.00;99.90;;;;;;4977566;28;20082;-77
2024/01/08 07:45:21;;;;;;;10.52;5.40;;;-1.00;99.90;;;;;;4995957;28;20483;-77
2024/01/08 07:47:46;;;;;;;10.40;6.10;;;-0.90;99.90;;;;;;4994161;28;20393;-77
2024/01/08 07:50:12;;;;;;;8.70;6.07;;;-0.90;99.90;;;;;;5019794;28;20037;-77
2024/01/08 07:52:38;;;;;;;8.93;5.65;;;-0.90;99.90;;;;;;4983402;28;20041;-77
2024/01/08 07:55:04;;;;;;;8.30;5.70;;;-0.90;99.90;;;;;;5010231;28;20049;-77
2024/01/08 07:57:30;;;;;;;9.95;5.72;;;-0.90;99.90;;;;;;4982919;28;20046;-77
2024/01/08 07:59:57;;;;;;;9.48;5.68;;;-0.80;99.90;;;;;;5005310;28;20041;-77
2024/01/08 08:02:23;;;;;;;10.57;5.32;;;-0.90;99.90;;;;;;4978380;28;21250;-77
2024/01/08 08:04:50;;;;;;;8.75;5.40;;;-0.80;99.90;;;;;;4991463;28;20071;-77
2024/01/08 08:07:17;;;;;;;10.00;5.22;;;-0.80;99.90;;;;;;4978416;28;20069;-77
2024/01/08 08:09:43;;;;;;;9.95;5.00;;;-0.80;99.90;;;;;;4988159;28;20163;-77
2024/01/08 08:12:09;;;;;;;10.80;4.97;;;-0.80;99.90;;;;;;4998952;28;20435;-77
2024/01/08 08:14:38;;;;;;;10.55;5.30;;;-0.80;99.90;;;;;;4998138;28;20504;-77
2024/01/08 08:17:04;;;;;;;9.63;5.13;;;-0.80;99.90;;;;;;4993964;28;20404;-77
2024/01/08 08:19:29;;;;;;;12.63;5.35;;;-0.80;99.90;;;;;;4983681;28;20030;-77
2024/01/08 08:21:56;;;;;;;9.38;4.90;;;-0.70;99.90;;;;;;4983999;28;20354;-77
2024/01/08 08:24:21;;;;;;;8.10;5.20;;;-0.70;1.00;;;;;;4989596;28;20037;-77
2024/01/08 08:26:47;;;;;;;9.40;4.90;;;-0.70;1.00;;;;;;4982925;28;20523;-77
2024/01/08 08:29:13;;;;;;;9.75;4.82;;;-0.70;1.00;;;;;;5023046;28;20501;-77
2024/01/08 08:31:40;;;;;;;9.73;5.43;;;-0.70;1.00;;;;;;5009799;28;20096;-78
2024/01/08 08:34:06;;;;;;;7.88;5.10;;;-0.60;1.00;;;;;;4998073;28;20049;-78
2024/01/08 08:36:32;;;;;;;10.35;4.78;;;-0.60;1.00;;;;;;4991137;28;20058;-78
2024/01/08 08:38:57;;;;;;;6.90;4.60;;;-0.50;1.00;;;;;;4995899;28;20325;-78
2024/01/08 08:41:23;;;;;;;6.97;4.65;;;-0.50;1.00;;;;;;4994789;28;20062;-79
2024/01/08 08:43:53;;;;;;;8.73;4.90;;;-0.50;1.00;;;;;;4981584;28;20046;-78
2024/01/08 08:46:19;;;;;;;8.82;4.80;;;-0.50;1.00;;;;;;4992088;28;20050;-78
2024/01/08 08:48:45;;;;;;;11.82;5.05;;;-0.50;1.00;;;;;;5001057;28;20080;-78
2024/01/08 08:51:11;;;;;;;11.82;4.38;;;-0.50;1.00;;;;;;4990642;28;20154;-78
2024/01/08 08:53:37;;;;;;;9.43;4.88;;;-0.40;1.00;;;;;;4991960;28;20394;-79
2024/01/08 08:56:04;;;;;;;8.48;4.50;;;-0.30;1.00;;;;;;4989265;28;20054;-78
2024/01/08 08:58:30;;;;;;;7.90;4.72;;;-0.30;1.00;;;;;;5008420;28;20140;-78
2024/01/08 09:00:56;;;;;;;9.25;4.40;;;-0.30;1.00;;;;;;4998710;28;20046;-78
2024/01/08 09:03:22;;;;;;;7.05;4.80;;;-0.20;1.00;;;;;;5016221;28;20040;-79
2024/01/08 09:05:48;;;;;;;10.75;4.35;;;-0.10;16.20;;;;;;5008099;28;20050;-79
2024/01/08 09:08:14;;;;;;;8.52;4.20;;;0.00;64.00;;;;;;4991466;28;20107;-77
2024/01/08 09:10:40;;;;;;;6.50;3.97;;;0.10;91.30;;;;;;4985676;28;20378;-77
2024/01/08 09:13:05;;;;;;;9.25;3.90;;;0.20;65.50;;;;;;4991208;28;20048;-77
2024/01/08 09:15:31;;;;;;;8.18;3.95;;;0.30;86.10;;;;;;4996859;28;20548;-78
2024/01/08 09:17:57;;;;;;;9.50;4.57;;;0.30;89.40;;;;;;4979438;28;20048;-77
2024/01/08 09:20:23;;;;;;;7.43;3.90;;;0.30;19.60;;;;;;5023577;28;20034;-78
2024/01/08 09:22:48;;;;;;;7.18;3.88;;;0.30;1.00;;;;;;5028168;28;20366;-79
2024/01/08 09:25:14;;;;;;;6.53;3.63;;;0.30;1.00;;;;;;5002090;28;20034;-78
2024/01/08 09:27:42;;;;;;;6.50;3.80;;;0.40;1.00;;;;;;4984865;28;20037;-78
2024/01/08 09:30:08;;;;;;;7.47;3.97;;;0.30;1.00;;;;;;4982239;28;20077;-78
2024/01/08 09:32:34;;;;;;;5.85;3.67;;;0.30;1.00;;;;;;5003473;28;20125;-78
2024/01/08 09:35:00;;;;;;;6.68;3.60;;;0.30;1.00;;;;;;5012361;28;20265;-78
2024/01/08 09:37:26;;;;;;;5.40;3.58;;;0.20;99.90;;;;;;4985667;28;20425;-79
2024/01/08 09:39:53;;;;;;;5.57;3.10;;;0.30;99.90;;;;;;4993862;28;20096;-79
2024/01/08 09:42:21;;;;;;;5.18;3.70;;;0.30;99.90;;;;;;4991759;28;20034;-79
2024/01/08 09:44:49;;;;;;;5.50;3.75;;;0.40;99.90;;;;;;4991013;28;20245;-79
2024/01/08 09:47:19;;;;;;;5.93;3.60;;;0.40;99.90;;;;;;4984547;28;20053;-79
2024/01/08 09:49:45;;;;;;;8.45;3.90;;;0.40;99.90;;;;;;4978382;28;20093;-79
2024/01/08 09:52:13;;;;;;;6.72;3.30;;;0.30;99.90;;;;;;4983492;28;20042;-79
2024/01/08 09:54:41;;;;;;;5.60;3.60;;;0.30;99.90;;;;;;5002990;28;20045;-79
2024/01/08 09:57:08;;;;;;;5.80;3.50;;;0.20;99.90;;;;;;4998569;28;20038;-79
2024/01/08 09:59:38;;;;;;;5.88;3.75;;;0.30;99.90;;;;;;5020846;28;20509;-79
2024/01/08 10:02:04;;;;;;;5.32;3.65;;;0.40;99.90;;;;;;4992259;28;20042;-79
2024/01/08 10:04:31;;;;;;;6.97;4.00;;;0.40;99.90;;;;;;4994044;28;20108;-79
2024/01/08 10:07:07;;;;;;;5.57;3.70;;;0.40;99.90;;;;;;4999776;28;20088;-79
2024/01/08 10:09:33;;;;;;;5.32;3.60;;;0.40;99.90;;;;;;5004194;28;20045;-79
2024/01/08 10:11:59;;;;;;;5.93;3.70;;;0.40;99.90;;;;;;4986982;28;20206;-79
2024/01/08 10:14:28;;;;;;;5.05;3.67;;;0.50;99.90;;;;;;4981599;28;20458;-79
2024/01/08 10:16:55;;;;;;;5.05;3.38;;;0.50;99.90;;;;;;4989374;28;20405;-79
2024/01/08 10:19:23;;;;;;;6.47;3.67;;;0.50;99.90;;;;;;5028378;28;20177;-79
2024/01/08 10:22:08;;;;;;;5.18;3.50;;;0.50;99.90;;;;;;4996731;28;20128;-79
2024/01/08 10:24:35;;;;;;;4.90;2.97;;;0.50;20.10;;;;;;4996901;28;20045;-79
2024/01/08 10:27:02;;;;;;;4.60;3.30;;;0.50;27.70;;;;;;4997044;28;20186;-80
2024/01/08 10:29:28;;;;;;;4.93;3.42;;;0.60;35.60;;;;;;4994786;28;20050;-79
2024/01/08 10:31:53;;;;;;;5.70;3.75;;;0.60;7.40;;;;;;4997305;28;20087;-80
2024/01/08 10:34:21;;;;;;;4.03;3.00;;;0.60;1.00;;;;;;4980661;28;20061;-80
2024/01/08 10:36:48;;;;;;;5.43;3.50;;;0.60;1.00;;;;;;5015024;28;20068;-80
2024/01/08 10:39:17;;;;;;;6.32;3.30;;;0.60;1.00;;;;;;4990173;28;20045;-80
2024/01/08 10:41:42;;;;;;;5.85;3.22;;;0.60;1.00;;;;;;4979134;28;20208;-80
2024/01/08 10:44:08;;;;;;;6.40;3.65;;;0.70;1.00;;;;;;4999676;28;20157;-80
2024/01/08 10:46:41;;;;;;;6.50;3.55;;;0.50;1.00;;;;;;4990711;28;20137;-81
2024/01/08 10:49:18;;;;;;;4.90;3.60;;;0.60;99.90;;;;;;4986655;28;20416;-80
2024/01/08 10:51:47;;;;;;;6.45;3.28;;;0.70;1.00;;;;;;4989276;28;20438;-80
2024/01/08 10:54:17;;;;;;;5.47;3.40;;;0.60;99.90;;;;;;4999175;28;20045;-80
2024/01/08 10:56:45;;;;;;;6.43;3.60;;;0.70;99.90;;;;;;5012754;28;20049;-80
2024/01/08 10:59:11;;;;;;;7.10;3.50;;;0.70;99.90;;;;;;4984753;28;20046;-80
2024/01/08 11:01:38;;;;;;;4.88;3.55;;;0.70;99.90;;;;;;4984720;28;20064;-80
2024/01/08 11:04:05;;;;;;;6.57;4.00;;;0.80;99.90;;;;;;4991297;28;20602;-80
2024/01/08 11:06:35;;;;;;;4.90;3.72;;;0.70;99.90;;;;;;5022039;28;20053;-80
2024/01/08 11:09:02;;;;;;;4.85;3.50;;;0.80;99.90;;;;;;4989488;28;20041;-80
2024/01/08 11:11:28;;;;;;;5.45;4.00;;;0.70;99.90;;;;;;4981179;28;20136;-80
2024/01/08 11:13:54;;;;;;;5.15;3.38;;;0.80;99.90;;;;;;4982061;28;20124;-80
2024/01/08 11:16:30;;;;;;;5.57;3.60;;;0.80;99.90;;;;;;5005693;28;20038;-81
2024/01/08 11:19:17;;;;;;;5.72;3.65;;;0.80;99.90;;;;;;4995225;28;20126;-80
2024/01/08 11:21:44;;;;;;;5.47;4.25;;;0.90;99.90;;;;;;5027633;28;20042;-80
2024/01/08 11:24:10;;;;;;;5.30;3.70;;;1.00;99.90;;;;;;5009962;28;20050;-80
2024/01/08 11:26:44;;;;;;;5.43;3.67;;;1.00;99.90;;;;;;4994610;28;20049;-80
2024/01/08 11:29:11;;;;;;;5.70;3.80;;;1.00;99.90;;;;;;5013861;28;20052;-80
2024/01/08 11:31:58;;;;;;;4.38;3.40;;;1.00;99.90;;;;;;5008964;28;20420;-80
2024/01/08 11:34:51;;;;;;;5.25;3.40;;;1.00;99.90;;;;;;4998876;28;20038;-80
2024/01/08 11:37:38;;;;;;;5.07;3.38;;;1.10;99.90;;;;;;4993233;28;20057;-80
2024/01/08 11:40:17;;;;;;;5.45;3.72;;;1.20;99.90;;;;;;5000783;28;20197;-80
2024/01/08 11:42:49;;;;;;;4.97;3.40;;;1.30;99.90;;;;;;4998629;28;20034;-80
2024/01/08 11:45:16;;;;;;;5.78;3.63;;;1.20;99.90;;;;;;4986948;28;20053;-80
2024/01/08 11:47:43;;;;;;;4.53;3.17;;;1.10;99.90;;;;;;4992697;28;20143;-81
2024/01/08 11:50:10;;;;;;;5.93;4.00;;;1.00;99.90;;;;;;5002720;28;20049;-81
2024/01/08 11:52:39;;;;;;;6.05;3.20;;;0.90;99.90;;;;;;4995820;28;20504;-81
2024/01/08 11:55:07;;;;;;;9.25;3.92;;;0.90;99.90;;;;;;4981850;28;20210;-80
2024/01/08 11:57:35;;;;;;;5.75;3.22;;;0.80;99.90;;;;;;4989714;28;20038;-80
2024/01/08 12:00:14;;;;;;;4.53;3.30;;;0.80;99.90;;;;;;4992770;28;20092;-80
2024/01/08 12:02:40;;;;;;;5.30;3.35;;;0.60;1.00;;;;;;4994187;28;21062;-80
2024/01/08 12:05:06;;;;;;;5.80;3.78;;;0.50;1.00;;;;;;4998755;28;20141;-80
2024/01/08 12:07:34;;;;;;;4.95;3.33;;;0.50;1.00;;;;;;4989333;28;20050;-80
2024/01/08 12:10:06;;;;;;;6.47;3.60;;;0.50;1.00;;;;;;4999298;28;20034;-80
2024/01/08 12:12:32;;;;;;;5.07;3.38;;;0.60;1.00;;;;;;5020882;28;20471;-80
2024/01/08 12:14:58;;;;;;;7.13;3.15;;;0.60;1.00;;;;;;5000255;28;20030;-80
2024/01/08 12:17:24;;;;;;;4.35;3.13;;;0.60;1.00;;;;;;4993502;28;20735;-80
2024/01/08 12:19:57;;;;;;;5.57;3.75;;;0.70;1.00;;;;;;4988727;28;20053;-80
2024/01/08 12:22:25;;;;;;;4.57;3.45;;;0.70;1.00;;;;;;4982540;28;20125;-80
2024/01/08 12:24:53;;;;;;;5.00;3.47;;;0.50;99.90;;;;;;4982775;28;20073;-80
2024/01/08 12:27:20;;;;;;;5.05;3.53;;;0.50;99.90;;;;;;4977599;28;20206;-81
2024/01/08 12:29:49;;;;;;;4.70;3.42;;;0.30;99.90;;;;;;4974275;28;20403;-80
2024/01/08 12:32:17;;;;;;;5.22;3.83;;;0.20;99.90;;;;;;4977553;28;20053;-80
2024/01/08 12:34:43;;;;;;;5.03;3.45;;;0.20;99.90;;;;;;4996646;28;20460;-80
2024/01/08 12:37:15;;;;;;;5.40;3.58;;;0.30;99.90;;;;;;4993940;28;20369;-79
2024/01/08 12:39:42;;;;;;;4.72;3.33;;;0.30;99.90;;;;;;4997482;28;20045;-80
2024/01/08 12:42:15;;;;;;;4.68;3.63;;;0.40;99.90;;;;;;4981920;28;20121;-80
2024/01/08 12:44:42;;;;;;;4.53;3.22;;;0.40;99.90;;;;;;4993370;28;20109;-80
2024/01/08 12:47:08;;;;;;;5.75;3.42;;;0.40;99.90;;;;;;4976783;28;20497;-80
2024/01/08 12:49:35;;;;;;;7.63;3.40;;;0.30;99.90;;;;;;4987913;28;20030;-80